createdAt,value
2023-04-12T00:00:43.961Z,9.40
2023-04-12T00:01:44.042Z,9.42
2023-04-12T00:02:44.073Z,9.40
2023-04-12T00:03:44.158Z,9.42
2023-04-12T00:04:44.108Z,9.42
2023-04-12T00:05:43.897Z,9.42
2023-04-12T00:06:43.902Z,9.42
2023-04-12T00:07:43.884Z,9.43
2023-04-12T00:08:43.877Z,9.46
2023-04-12T00:09:43.911Z,9.43
2023-04-12T00:10:43.871Z,9.43
2023-04-12T00:11:43.865Z,9.46
2023-04-12T00:12:43.828Z,9.47
2023-04-12T00:13:43.791Z,9.50
2023-04-12T00:14:43.785Z,9.48
2023-04-12T00:15:43.767Z,9.50
2023-04-12T00:16:43.792Z,9.50
2023-04-12T00:17:43.802Z,9.47
2023-04-12T00:18:43.744Z,9.50
2023-04-12T00:19:43.721Z,9.50
2023-04-12T00:20:43.727Z,9.48
2023-04-12T00:21:43.726Z,9.47
2023-04-12T00:22:43.680Z,9.48
2023-04-12T00:23:43.674Z,9.47
2023-04-12T00:24:43.657Z,9.47
2023-04-12T00:25:43.658Z,9.46
2023-04-12T00:26:43.661Z,9.47
2023-04-12T00:27:43.676Z,9.47
2023-04-12T00:28:43.617Z,9.46
2023-04-12T00:29:43.591Z,9.48
2023-04-12T00:30:43.571Z,9.48
2023-04-12T00:31:43.673Z,9.50
2023-04-12T00:32:43.595Z,9.50
2023-04-12T00:33:43.545Z,9.51
2023-04-12T00:34:43.543Z,9.53
2023-04-12T00:35:43.584Z,9.53
2023-04-12T00:36:43.511Z,9.53
2023-04-12T00:37:43.475Z,9.53
2023-04-12T00:38:43.481Z,9.54
2023-04-12T00:39:43.450Z,9.54
2023-04-12T00:40:43.436Z,9.54
2023-04-12T00:41:43.449Z,9.58
2023-04-12T00:42:43.427Z,9.58
2023-04-12T00:43:43.442Z,9.60
2023-04-12T00:44:43.385Z,9.61
2023-04-12T00:45:43.372Z,9.60
2023-04-12T00:46:43.401Z,9.60
2023-04-12T00:47:43.410Z,9.61
2023-04-12T00:48:43.339Z,9.61
2023-04-12T00:49:43.337Z,9.60
2023-04-12T00:50:43.330Z,9.58
2023-04-12T00:51:43.311Z,9.58
2023-04-12T00:52:43.288Z,9.57
2023-04-12T00:53:43.288Z,9.56
2023-04-12T00:54:43.292Z,9.54
2023-04-12T00:55:43.260Z,9.54
2023-04-12T00:56:43.226Z,9.54
2023-04-12T00:57:43.226Z,9.54
2023-04-12T00:58:43.211Z,9.53
2023-04-12T00:59:43.210Z,9.53
2023-04-12T01:00:43.235Z,9.51
2023-04-12T01:01:43.469Z,9.53
2023-04-12T01:02:43.294Z,9.51
2023-04-12T01:03:43.600Z,9.51
2023-04-12T01:04:43.133Z,9.50
2023-04-12T01:05:43.144Z,9.50
2023-04-12T01:06:43.123Z,9.50
2023-04-12T01:07:43.088Z,9.47
2023-04-12T01:08:43.063Z,9.46
2023-04-12T01:09:43.061Z,9.42
2023-04-12T01:10:43.039Z,9.40
2023-04-12T01:11:43.042Z,9.39
2023-04-12T01:12:43.012Z,9.36
2023-04-12T01:13:42.997Z,9.35
2023-04-12T01:14:42.994Z,9.32
2023-04-12T01:15:42.987Z,9.33
2023-04-12T01:16:43.102Z,9.32
2023-04-12T01:17:42.970Z,9.32
2023-04-12T01:18:42.945Z,9.28
2023-04-12T01:19:42.935Z,9.26
2023-04-12T01:20:42.912Z,9.24
2023-04-12T01:21:42.890Z,9.24
2023-04-12T01:22:43.077Z,9.24
2023-04-12T01:23:42.876Z,9.23
2023-04-12T01:24:42.886Z,9.21
2023-04-12T01:25:42.848Z,9.20
2023-04-12T01:26:42.828Z,9.17
2023-04-12T01:27:42.864Z,9.17
2023-04-12T01:28:42.816Z,9.15
2023-04-12T01:29:42.787Z,9.15
2023-04-12T01:30:42.779Z,9.15
2023-04-12T01:31:42.780Z,9.13
2023-04-12T01:32:42.770Z,9.11
2023-04-12T01:33:42.761Z,9.11
2023-04-12T01:34:42.717Z,9.11
2023-04-12T01:35:42.735Z,9.11
2023-04-12T01:36:42.747Z,9.10
2023-04-12T01:37:42.698Z,9.05
2023-04-12T01:38:42.686Z,9.05
2023-04-12T01:39:42.656Z,9.08
2023-04-12T01:40:42.809Z,9.05
2023-04-12T01:41:42.660Z,9.04
2023-04-12T01:42:42.626Z,9.02
2023-04-12T01:43:42.611Z,9.04
2023-04-12T01:44:42.591Z,9.02
2023-04-12T01:45:42.640Z,9.01
2023-04-12T01:46:42.571Z,8.99
2023-04-12T01:47:42.645Z,8.98
2023-04-12T01:48:42.539Z,8.98
2023-04-12T01:49:42.534Z,8.95
2023-04-12T01:50:42.540Z,8.95
2023-04-12T01:51:42.512Z,8.95
2023-04-12T01:52:42.503Z,8.92
2023-04-12T01:53:42.498Z,8.92
2023-04-12T01:54:42.469Z,8.89
2023-04-12T01:55:42.458Z,8.89
2023-04-12T01:56:42.465Z,8.87
2023-04-12T01:57:42.422Z,8.87
2023-04-12T01:58:42.425Z,8.86
2023-04-12T01:59:42.409Z,8.84
2023-04-12T02:00:42.396Z,8.83
2023-04-12T02:01:42.497Z,8.81
2023-04-12T02:02:42.492Z,8.80
2023-04-12T02:03:42.455Z,8.79
2023-04-12T02:04:42.342Z,8.79
2023-04-12T02:05:42.323Z,8.77
2023-04-12T02:06:42.332Z,8.77
2023-04-12T02:07:42.303Z,8.77
2023-04-12T02:08:42.287Z,8.76
2023-04-12T02:09:42.271Z,8.74
2023-04-12T02:10:42.251Z,8.74
2023-04-12T02:11:42.240Z,8.74
2023-04-12T02:12:42.242Z,8.73
2023-04-12T02:13:42.214Z,8.71
2023-04-12T02:14:42.204Z,8.71
2023-04-12T02:15:42.186Z,8.71
2023-04-12T02:16:42.303Z,8.71
2023-04-12T02:17:42.188Z,8.71
2023-04-12T02:18:42.153Z,8.70
2023-04-12T02:19:42.133Z,8.70
2023-04-12T02:20:42.152Z,8.68
2023-04-12T02:21:42.236Z,8.65
2023-04-12T02:22:42.094Z,8.66
2023-04-12T02:23:42.080Z,8.65
2023-04-12T02:24:42.069Z,8.62
2023-04-12T02:25:42.064Z,8.62
2023-04-12T02:26:42.057Z,8.61
2023-04-12T02:27:42.040Z,8.61
2023-04-12T02:28:42.016Z,8.59
2023-04-12T02:29:42.010Z,8.59
2023-04-12T02:30:42.027Z,8.59
2023-04-12T02:31:42.295Z,8.59
2023-04-12T02:32:41.977Z,8.58
2023-04-12T02:33:41.950Z,8.56
2023-04-12T02:34:41.949Z,8.56
2023-04-12T02:35:41.940Z,8.55
2023-04-12T02:36:41.930Z,8.53
2023-04-12T02:37:41.892Z,8.53
2023-04-12T02:38:41.887Z,8.53
2023-04-12T02:39:41.880Z,8.52
2023-04-12T02:40:41.878Z,8.52
2023-04-12T02:41:42.621Z,8.52
2023-04-12T02:42:41.833Z,8.52
2023-04-12T02:43:41.827Z,8.52
2023-04-12T02:44:41.811Z,8.50
2023-04-12T02:45:41.806Z,8.50
2023-04-12T02:46:41.784Z,8.50
2023-04-12T02:47:41.826Z,8.50
2023-04-12T02:48:41.743Z,8.50
2023-04-12T02:49:41.749Z,8.48
2023-04-12T02:50:41.727Z,8.47
2023-04-12T02:51:41.750Z,8.48
2023-04-12T02:52:41.698Z,8.50
2023-04-12T02:53:41.685Z,8.48
2023-04-12T02:54:41.674Z,8.48
2023-04-12T02:55:41.649Z,8.50
2023-04-12T02:56:41.645Z,8.47
2023-04-12T02:57:41.653Z,8.45
2023-04-12T02:58:41.618Z,8.47
2023-04-12T02:59:41.607Z,8.45
2023-04-12T03:00:41.593Z,8.48
2023-04-12T03:01:41.699Z,8.47
2023-04-12T03:02:41.673Z,8.47
2023-04-12T03:03:41.651Z,8.47
2023-04-12T03:04:41.553Z,8.47
2023-04-12T03:05:41.525Z,8.45
2023-04-12T03:06:41.584Z,8.45
2023-04-12T03:07:41.508Z,8.44
2023-04-12T03:08:41.502Z,8.45
2023-04-12T03:09:41.488Z,8.45
2023-04-12T03:10:41.464Z,8.44
2023-04-12T03:11:41.461Z,8.45
2023-04-12T03:12:41.476Z,8.44
2023-04-12T03:13:41.422Z,8.43
2023-04-12T03:14:41.420Z,8.43
2023-04-12T03:15:41.417Z,8.43
2023-04-12T03:16:42.148Z,8.43
2023-04-12T03:17:41.397Z,8.41
2023-04-12T03:18:41.386Z,8.40
2023-04-12T03:19:41.353Z,8.38
2023-04-12T03:20:41.325Z,8.40
2023-04-12T03:21:41.337Z,8.38
2023-04-12T03:22:41.300Z,8.34
2023-04-12T03:23:41.304Z,8.36
2023-04-12T03:24:41.303Z,8.34
2023-04-12T03:25:41.265Z,8.36
2023-04-12T03:26:41.257Z,8.34
2023-04-12T03:27:41.237Z,8.34
2023-04-12T03:28:41.226Z,8.33
2023-04-12T03:29:41.213Z,8.33
2023-04-12T03:30:41.209Z,8.30
2023-04-12T03:31:41.266Z,8.29
2023-04-12T03:32:41.175Z,8.29
2023-04-12T03:33:41.157Z,8.29
2023-04-12T03:34:41.149Z,8.28
2023-04-12T03:35:41.168Z,8.29
2023-04-12T03:36:41.126Z,8.29
2023-04-12T03:37:41.100Z,8.28
2023-04-12T03:38:41.118Z,8.26
2023-04-12T03:39:41.090Z,8.26
2023-04-12T03:40:41.064Z,8.29
2023-04-12T03:41:41.083Z,8.28
2023-04-12T03:42:41.234Z,8.28
2023-04-12T03:43:41.026Z,8.26
2023-04-12T03:44:41.000Z,8.28
2023-04-12T03:45:40.988Z,8.28
2023-04-12T03:46:41.070Z,8.26
2023-04-12T03:47:40.999Z,8.28
2023-04-12T03:48:40.962Z,8.26
2023-04-12T03:49:40.940Z,8.28
2023-04-12T03:50:40.978Z,8.29
2023-04-12T03:51:40.927Z,8.29
2023-04-12T03:52:40.918Z,8.30
2023-04-12T03:53:40.889Z,8.30
2023-04-12T03:54:40.894Z,8.33
2023-04-12T03:55:40.871Z,8.30
2023-04-12T03:56:40.866Z,8.33
2023-04-12T03:57:40.838Z,8.33
2023-04-12T03:58:40.826Z,8.30
2023-04-12T03:59:40.807Z,8.33
2023-04-12T04:00:40.796Z,8.33
2023-04-12T04:01:40.838Z,8.33
2023-04-12T04:02:40.826Z,8.30
2023-04-12T04:03:40.964Z,8.30
2023-04-12T04:04:40.771Z,8.29
2023-04-12T04:05:40.741Z,8.30
2023-04-12T04:06:40.722Z,8.30
2023-04-12T04:07:40.737Z,8.29
2023-04-12T04:08:40.696Z,8.28
2023-04-12T04:09:40.682Z,8.29
2023-04-12T04:10:40.661Z,8.28
2023-04-12T04:11:40.700Z,8.28
2023-04-12T04:12:40.641Z,8.28
2023-04-12T04:13:40.625Z,8.28
2023-04-12T04:14:40.619Z,8.28
2023-04-12T04:15:40.610Z,8.29
2023-04-12T04:16:40.704Z,8.28
2023-04-12T04:17:40.652Z,8.28
2023-04-12T04:18:40.564Z,8.28
2023-04-12T04:19:40.541Z,8.28
2023-04-12T04:20:40.549Z,8.28
2023-04-12T04:21:40.521Z,8.28
2023-04-12T04:22:40.540Z,8.28
2023-04-12T04:23:40.497Z,8.28
2023-04-12T04:24:40.475Z,8.28
2023-04-12T04:25:40.505Z,8.28
2023-04-12T04:26:40.461Z,8.28
2023-04-12T04:27:40.446Z,8.28
2023-04-12T04:28:40.479Z,8.28
2023-04-12T04:29:40.417Z,8.28
2023-04-12T04:30:40.403Z,8.26
2023-04-12T04:31:40.408Z,8.28
2023-04-12T04:32:40.424Z,8.28
2023-04-12T04:33:40.360Z,8.28
2023-04-12T04:34:40.372Z,8.29
2023-04-12T04:35:40.365Z,8.28
2023-04-12T04:36:40.382Z,8.28
2023-04-12T04:37:40.317Z,8.29
2023-04-12T04:38:40.323Z,8.29
2023-04-12T04:39:40.301Z,8.29
2023-04-12T04:40:40.281Z,8.30
2023-04-12T04:41:40.281Z,8.29
2023-04-12T04:42:40.262Z,8.30
2023-04-12T04:43:40.258Z,8.30
2023-04-12T04:44:40.242Z,8.29
2023-04-12T04:45:40.218Z,8.30
2023-04-12T04:46:40.317Z,8.30
2023-04-12T04:47:40.203Z,8.30
2023-04-12T04:48:40.180Z,8.33
2023-04-12T04:49:40.165Z,8.33
2023-04-12T04:50:40.145Z,8.30
2023-04-12T04:51:40.157Z,8.33
2023-04-12T04:52:40.120Z,8.33
2023-04-12T04:53:40.106Z,8.33
2023-04-12T04:54:40.115Z,8.33
2023-04-12T04:55:40.078Z,8.30
2023-04-12T04:56:40.076Z,8.30
2023-04-12T04:57:40.055Z,8.33
2023-04-12T04:58:40.060Z,8.34
2023-04-12T04:59:40.063Z,8.34
2023-04-12T05:00:40.016Z,8.33
2023-04-12T05:01:40.171Z,8.34
2023-04-12T05:02:40.265Z,8.34
2023-04-12T05:03:40.036Z,8.34
2023-04-12T05:04:39.974Z,8.34
2023-04-12T05:05:39.955Z,8.37
2023-04-12T05:06:39.962Z,8.37
2023-04-12T05:07:39.929Z,8.37
2023-04-12T05:08:39.909Z,8.38
2023-04-12T05:09:39.929Z,8.37
2023-04-12T05:10:39.876Z,8.40
2023-04-12T05:11:39.899Z,8.40
2023-04-12T05:12:39.844Z,8.40
2023-04-12T05:13:39.850Z,8.40
2023-04-12T05:14:47.080Z,8.40
2023-04-12T05:15:40.813Z,8.41
2023-04-12T05:16:39.876Z,8.38
2023-04-12T05:17:39.844Z,8.38
2023-04-12T05:18:39.809Z,8.38
2023-04-12T05:19:39.779Z,8.38
2023-04-12T05:20:39.753Z,8.37
2023-04-12T05:21:39.734Z,8.37
2023-04-12T05:22:39.719Z,8.36
2023-04-12T05:23:39.711Z,8.33
2023-04-12T05:24:39.728Z,8.30
2023-04-12T05:25:39.705Z,8.30
2023-04-12T05:26:39.665Z,8.29
2023-04-12T05:27:39.661Z,8.28
2023-04-12T05:28:39.647Z,8.29
2023-04-12T05:29:39.640Z,8.29
2023-04-12T05:30:39.647Z,8.28
2023-04-12T05:31:39.617Z,8.28
2023-04-12T05:32:39.623Z,8.28
2023-04-12T05:33:39.579Z,8.25
2023-04-12T05:34:39.562Z,8.23
2023-04-12T05:35:39.597Z,8.23
2023-04-12T05:36:39.546Z,8.23
2023-04-12T05:37:39.524Z,8.22
2023-04-12T05:38:39.527Z,8.20
2023-04-12T05:39:39.528Z,8.22
2023-04-12T05:40:39.484Z,8.20
2023-04-12T05:41:39.527Z,8.20
2023-04-12T05:42:39.457Z,8.20
2023-04-12T05:43:39.459Z,8.16
2023-04-12T05:44:39.444Z,8.16
2023-04-12T05:45:39.423Z,8.12
2023-04-12T05:46:39.516Z,8.15
2023-04-12T05:47:39.428Z,8.12
2023-04-12T05:48:39.373Z,8.11
2023-04-12T05:49:39.367Z,8.11
2023-04-12T05:50:39.358Z,8.11
2023-04-12T05:51:41.347Z,8.11
2023-04-12T05:52:39.363Z,8.10
2023-04-12T05:53:39.324Z,8.07
2023-04-12T05:54:39.312Z,8.07
2023-04-12T05:55:39.301Z,8.08
2023-04-12T05:56:39.298Z,8.05
2023-04-12T05:57:39.263Z,8.05
2023-04-12T05:58:39.284Z,8.04
2023-04-12T05:59:39.253Z,8.04
2023-04-12T06:00:39.222Z,8.05
2023-04-12T06:01:39.534Z,8.04
2023-04-12T06:02:39.376Z,8.04
2023-04-12T06:03:39.330Z,8.04
2023-04-12T06:04:50.232Z,8.04
2023-04-12T06:05:40.306Z,8.04
2023-04-12T06:06:39.155Z,8.04
2023-04-12T06:07:39.140Z,8.04
2023-04-12T06:08:39.137Z,8.04
2023-04-12T06:09:39.139Z,8.04
2023-04-12T06:10:39.092Z,8.05
2023-04-12T06:11:39.218Z,8.05
2023-04-12T06:12:39.079Z,8.04
2023-04-12T06:13:39.057Z,8.04
2023-04-12T06:14:39.043Z,8.02
2023-04-12T06:15:39.069Z,8.02
2023-04-12T06:16:40.676Z,8.02
2023-04-12T06:17:39.028Z,8.02
2023-04-12T06:18:38.997Z,8.04
2023-04-12T06:19:38.969Z,8.05
2023-04-12T06:20:38.956Z,8.04
2023-04-12T06:21:39.263Z,8.04
2023-04-12T06:22:38.966Z,8.05
2023-04-12T06:23:38.929Z,8.05
2023-04-12T06:24:38.913Z,8.07
2023-04-12T06:25:38.919Z,8.08
2023-04-12T06:26:40.241Z,8.08
2023-04-12T06:27:38.880Z,8.10
2023-04-12T06:28:38.861Z,8.08
2023-04-12T06:29:38.843Z,8.08
2023-04-12T06:30:38.835Z,8.08
2023-04-12T06:31:38.903Z,8.10
2023-04-12T06:32:38.969Z,8.10
2023-04-12T06:33:38.786Z,8.12
2023-04-12T06:34:38.775Z,8.11
2023-04-12T06:35:38.767Z,8.11
2023-04-12T06:36:38.764Z,8.10
2023-04-12T06:37:38.741Z,8.11
2023-04-12T06:38:38.714Z,8.11
2023-04-12T06:39:38.720Z,8.11
2023-04-12T06:40:38.704Z,8.11
2023-04-12T06:41:39.512Z,8.11
2023-04-12T06:42:38.675Z,8.12
2023-04-12T06:43:38.817Z,8.12
2023-04-12T06:44:38.635Z,8.11
2023-04-12T06:45:38.654Z,8.12
2023-04-12T06:46:38.658Z,8.16
2023-04-12T06:47:38.662Z,8.16
2023-04-12T06:48:38.582Z,8.19
2023-04-12T06:49:38.581Z,8.20
2023-04-12T06:50:38.549Z,8.20
2023-04-12T06:51:38.579Z,8.20
2023-04-12T06:52:38.531Z,8.23
2023-04-12T06:53:38.522Z,8.23
2023-04-12T06:54:38.505Z,8.23
2023-04-12T06:55:38.501Z,8.25
2023-04-12T06:56:38.493Z,8.26
2023-04-12T06:57:38.751Z,8.26
2023-04-12T06:58:38.462Z,8.28
2023-04-12T06:59:38.487Z,8.28
2023-04-12T07:00:38.429Z,8.29
2023-04-12T07:01:38.803Z,8.33
2023-04-12T07:02:38.616Z,8.34
2023-04-12T07:03:38.614Z,8.36
2023-04-12T07:04:38.380Z,8.34
2023-04-12T07:05:38.365Z,8.36
2023-04-12T07:06:38.356Z,8.37
2023-04-12T07:07:38.371Z,8.38
2023-04-12T07:08:38.341Z,8.38
2023-04-12T07:09:38.317Z,8.41
2023-04-12T07:10:38.312Z,8.44
2023-04-12T07:11:38.310Z,8.44
2023-04-12T07:12:38.279Z,8.44
2023-04-12T07:13:38.272Z,8.44
2023-04-12T07:14:38.276Z,8.43
2023-04-12T07:15:38.308Z,8.43
2023-04-12T07:16:38.677Z,8.41
2023-04-12T07:17:38.261Z,8.43
2023-04-12T07:18:38.222Z,8.41
2023-04-12T07:19:38.185Z,8.38
2023-04-12T07:20:38.190Z,8.37
2023-04-12T07:21:38.199Z,8.38
2023-04-12T07:22:38.178Z,8.38
2023-04-12T07:23:38.134Z,8.41
2023-04-12T07:24:38.204Z,8.41
2023-04-12T07:25:38.123Z,8.44
2023-04-12T07:26:38.153Z,8.44
2023-04-12T07:27:38.083Z,8.47
2023-04-12T07:28:38.108Z,8.50
2023-04-12T07:29:38.247Z,8.52
2023-04-12T07:30:38.052Z,8.55
2023-04-12T07:31:38.062Z,8.55
2023-04-12T07:32:38.097Z,8.56
2023-04-12T07:33:39.440Z,8.56
2023-04-12T07:34:38.081Z,8.56
2023-04-12T07:35:37.983Z,8.58
2023-04-12T07:36:37.980Z,8.62
2023-04-12T07:37:37.958Z,8.62
2023-04-12T07:38:37.932Z,8.65
2023-04-12T07:39:37.944Z,8.62
2023-04-12T07:40:37.902Z,8.65
2023-04-12T07:41:37.926Z,8.68
2023-04-12T07:42:37.881Z,8.71
2023-04-12T07:43:37.880Z,8.76
2023-04-12T07:44:38.777Z,8.77
2023-04-12T07:45:37.894Z,8.79
2023-04-12T07:46:37.852Z,8.83
2023-04-12T07:47:37.841Z,8.84
2023-04-12T07:48:37.795Z,8.84
2023-04-12T07:49:37.835Z,8.87
2023-04-12T07:50:37.788Z,8.91
2023-04-12T07:51:37.780Z,8.94
2023-04-12T07:52:37.740Z,8.94
2023-04-12T07:53:37.750Z,8.94
2023-04-12T07:54:37.745Z,8.95
2023-04-12T07:55:37.707Z,8.96
2023-04-12T07:56:37.754Z,8.98
2023-04-12T07:57:37.684Z,8.95
2023-04-12T07:58:37.685Z,8.96
2023-04-12T07:59:37.649Z,8.98
2023-04-12T08:00:37.644Z,9.02
2023-04-12T08:01:37.671Z,9.04
2023-04-12T08:02:37.719Z,9.04
2023-04-12T08:03:37.705Z,9.04
2023-04-12T08:04:37.593Z,9.05
2023-04-12T08:05:37.717Z,9.08
2023-04-12T08:06:37.612Z,9.10
2023-04-12T08:07:37.574Z,9.13
2023-04-12T08:08:37.539Z,9.13
2023-04-12T08:09:37.526Z,9.13
2023-04-12T08:10:37.533Z,9.08
2023-04-12T08:11:37.495Z,9.05
2023-04-12T08:12:37.522Z,9.10
2023-04-12T08:13:37.495Z,9.08
2023-04-12T08:14:39.118Z,9.10
2023-04-12T08:15:37.480Z,9.05
2023-04-12T08:16:37.589Z,9.05
2023-04-12T08:17:37.457Z,9.04
2023-04-12T08:18:37.434Z,9.08
2023-04-12T08:19:37.389Z,9.10
2023-04-12T08:20:37.393Z,9.11
2023-04-12T08:21:37.391Z,9.13
2023-04-12T08:22:37.354Z,9.13
2023-04-12T08:23:37.374Z,9.08
2023-04-12T08:24:37.326Z,9.11
2023-04-12T08:25:37.359Z,9.11
2023-04-12T08:26:37.353Z,9.11
2023-04-12T08:27:37.297Z,9.11
2023-04-12T08:28:39.526Z,9.11
2023-04-12T08:29:37.277Z,9.08
2023-04-12T08:30:38.003Z,9.10
2023-04-12T08:31:37.307Z,9.11
2023-04-12T08:32:37.297Z,9.11
2023-04-12T08:33:37.206Z,9.11
2023-04-12T08:34:37.286Z,9.13
2023-04-12T08:35:37.287Z,9.14
2023-04-12T08:36:37.219Z,9.17
2023-04-12T08:37:37.159Z,9.17
2023-04-12T08:38:44.980Z,9.17
2023-04-12T08:39:38.136Z,9.18
2023-04-12T08:40:37.181Z,9.20
2023-04-12T08:41:38.520Z,9.23
2023-04-12T08:42:37.126Z,9.24
2023-04-12T08:43:37.090Z,9.26
2023-04-12T08:44:37.069Z,9.23
2023-04-12T08:45:37.056Z,9.24
2023-04-12T08:46:37.105Z,9.28
2023-04-12T08:47:37.085Z,9.31
2023-04-12T08:48:37.024Z,9.33
2023-04-12T08:49:37.004Z,9.35
2023-04-12T08:50:36.990Z,9.39
2023-04-12T08:51:36.993Z,9.42
2023-04-12T08:52:36.990Z,9.42
2023-04-12T08:53:36.952Z,9.40
2023-04-12T08:54:36.938Z,9.39
2023-04-12T08:55:36.948Z,9.43
2023-04-12T08:56:36.924Z,9.46
2023-04-12T08:57:36.901Z,9.46
2023-04-12T08:58:36.880Z,9.46
2023-04-12T08:59:36.895Z,9.42
2023-04-12T09:00:36.863Z,9.42
2023-04-12T09:01:36.876Z,9.40
2023-04-12T09:02:36.960Z,9.40
2023-04-12T09:03:37.080Z,9.38
2023-04-12T09:04:36.921Z,9.38
2023-04-12T09:05:36.800Z,9.40
2023-04-12T09:06:37.257Z,9.39
2023-04-12T09:07:36.783Z,9.42
2023-04-12T09:08:36.782Z,9.42
2023-04-12T09:09:36.812Z,9.40
2023-04-12T09:10:36.754Z,9.40
2023-04-12T09:11:36.728Z,9.42
2023-04-12T09:12:36.723Z,9.47
2023-04-12T09:13:36.712Z,9.51
2023-04-12T09:14:36.699Z,9.53
2023-04-12T09:15:36.694Z,9.57
2023-04-12T09:16:36.731Z,9.58
2023-04-12T09:17:36.674Z,9.60
2023-04-12T09:18:36.624Z,9.64
2023-04-12T09:19:36.612Z,9.69
2023-04-12T09:20:36.652Z,9.71
2023-04-12T09:21:36.647Z,9.65
2023-04-12T09:22:36.593Z,9.60
2023-04-12T09:23:36.590Z,9.60
2023-04-12T09:24:36.560Z,9.65
2023-04-12T09:25:36.616Z,9.66
2023-04-12T09:26:36.514Z,9.71
2023-04-12T09:27:36.523Z,9.75
2023-04-12T09:28:36.516Z,9.75
2023-04-12T09:29:36.483Z,9.74
2023-04-12T09:30:36.470Z,9.76
2023-04-12T09:31:36.568Z,9.75
2023-04-12T09:32:36.570Z,9.74
2023-04-12T09:33:36.545Z,9.74
2023-04-12T09:34:36.427Z,9.72
2023-04-12T09:35:36.480Z,9.74
2023-04-12T09:36:36.397Z,9.75
2023-04-12T09:37:36.397Z,9.81
2023-04-12T09:38:36.375Z,9.86
2023-04-12T09:39:37.525Z,9.90
2023-04-12T09:40:36.397Z,9.90
2023-04-12T09:41:36.362Z,9.93
2023-04-12T09:42:36.330Z,9.91
2023-04-12T09:43:36.310Z,9.94
2023-04-12T09:44:36.276Z,9.96
2023-04-12T09:45:36.296Z,10.01
2023-04-12T09:46:36.403Z,10.01
2023-04-12T09:47:36.332Z,10.07
2023-04-12T09:48:36.246Z,10.11
2023-04-12T09:49:36.222Z,10.17
2023-04-12T09:50:36.198Z,10.22
2023-04-12T09:51:36.190Z,10.26
2023-04-12T09:52:36.261Z,10.25
2023-04-12T09:53:36.184Z,10.26
2023-04-12T09:54:36.157Z,10.23
2023-04-12T09:55:36.158Z,10.22
2023-04-12T09:56:36.221Z,10.22
2023-04-12T09:57:36.106Z,10.15
2023-04-12T09:58:36.128Z,10.12
2023-04-12T09:59:36.082Z,10.12
2023-04-12T10:00:36.083Z,10.14
2023-04-12T10:01:36.124Z,10.15
2023-04-12T10:02:36.289Z,10.17
2023-04-12T10:03:36.174Z,10.17
2023-04-12T10:04:36.068Z,10.18
2023-04-12T10:05:36.125Z,10.20
2023-04-12T10:06:35.982Z,10.22
2023-04-12T10:07:35.980Z,10.25
2023-04-12T10:08:35.981Z,10.32
2023-04-12T10:09:35.961Z,10.41
2023-04-12T10:10:35.962Z,10.52
2023-04-12T10:11:35.951Z,10.63
2023-04-12T10:12:35.951Z,10.68
2023-04-12T10:13:35.900Z,10.73
2023-04-12T10:14:35.898Z,10.76
2023-04-12T10:15:35.862Z,10.89
2023-04-12T10:16:35.917Z,11.15
2023-04-12T10:17:35.878Z,11.32
2023-04-12T10:18:35.822Z,11.43
2023-04-12T10:19:35.815Z,11.58
2023-04-12T10:20:35.838Z,11.58
2023-04-12T10:21:35.819Z,11.49
2023-04-12T10:22:35.905Z,11.61
2023-04-12T10:23:35.764Z,11.72
2023-04-12T10:24:35.766Z,11.79
2023-04-12T10:25:35.767Z,11.78
2023-04-12T10:26:35.733Z,11.76
2023-04-12T10:27:35.732Z,11.85
2023-04-12T10:28:35.704Z,11.94
2023-04-12T10:29:35.681Z,11.98
2023-04-12T10:30:35.671Z,11.83
2023-04-12T10:31:35.751Z,11.75
2023-04-12T10:32:35.819Z,11.64
2023-04-12T10:33:35.628Z,11.49
2023-04-12T10:34:35.631Z,11.47
2023-04-12T10:35:35.656Z,11.60
2023-04-12T10:36:35.613Z,11.79
2023-04-12T10:37:35.618Z,11.91
2023-04-12T10:38:36.252Z,11.99
2023-04-12T10:39:35.572Z,12.04
2023-04-12T10:40:35.585Z,12.09
2023-04-12T10:41:35.552Z,12.04
2023-04-12T10:42:35.557Z,12.02
2023-04-12T10:43:35.525Z,11.90
2023-04-12T10:44:35.801Z,11.83
2023-04-12T10:45:35.488Z,11.82
2023-04-12T10:46:35.539Z,11.82
2023-04-12T10:47:35.528Z,11.79
2023-04-12T10:48:35.448Z,11.79
2023-04-12T10:49:35.455Z,11.80
2023-04-12T10:50:35.505Z,11.73
2023-04-12T10:51:35.417Z,11.78
2023-04-12T10:52:35.411Z,11.82
2023-04-12T10:53:35.386Z,11.82
2023-04-12T10:54:35.722Z,11.88
2023-04-12T10:55:35.370Z,11.91
2023-04-12T10:56:35.325Z,11.90
2023-04-12T10:57:35.325Z,11.96
2023-04-12T10:58:35.347Z,11.95
2023-04-12T10:59:46.911Z,11.83
2023-04-12T11:00:36.359Z,11.85
2023-04-12T11:01:38.331Z,11.88
2023-04-12T11:02:35.472Z,11.88
2023-04-12T11:03:35.301Z,11.90
2023-04-12T11:04:35.386Z,11.94
2023-04-12T11:05:35.263Z,11.94
2023-04-12T11:06:35.237Z,11.91
2023-04-12T11:07:35.200Z,11.90
2023-04-12T11:08:35.211Z,11.88
2023-04-12T11:09:35.162Z,11.78
2023-04-12T11:10:35.163Z,11.65
2023-04-12T11:11:35.133Z,11.46
2023-04-12T11:12:35.108Z,11.37
2023-04-12T11:13:35.133Z,11.28
2023-04-12T11:14:35.092Z,11.19
2023-04-12T11:15:35.087Z,11.14
2023-04-12T11:16:35.087Z,11.02
2023-04-12T11:17:37.103Z,10.97
2023-04-12T11:18:35.157Z,10.94
2023-04-12T11:19:35.037Z,10.92
2023-04-12T11:20:35.050Z,10.88
2023-04-12T11:21:35.009Z,10.84
2023-04-12T11:22:34.973Z,10.84
2023-04-12T11:23:35.033Z,10.84
2023-04-12T11:24:34.976Z,10.81
2023-04-12T11:25:35.000Z,10.81
2023-04-12T11:26:34.926Z,10.81
2023-04-12T11:27:34.931Z,10.76
2023-04-12T11:28:35.644Z,10.67
2023-04-12T11:29:34.906Z,10.66
2023-04-12T11:30:34.914Z,10.67
2023-04-12T11:31:34.889Z,10.70
2023-04-12T11:32:34.904Z,10.74
2023-04-12T11:33:34.858Z,10.78
2023-04-12T11:34:34.823Z,10.70
2023-04-12T11:35:34.819Z,10.70
2023-04-12T11:36:34.802Z,10.74
2023-04-12T11:37:34.807Z,10.84
2023-04-12T11:38:34.853Z,10.89
2023-04-12T11:39:34.783Z,10.94
2023-04-12T11:40:34.779Z,11.03
2023-04-12T11:41:34.735Z,11.02
2023-04-12T11:42:34.720Z,11.03
2023-04-12T11:43:34.739Z,11.06
2023-04-12T11:44:52.123Z,11.14
2023-04-12T11:45:35.741Z,11.17
2023-04-12T11:46:34.665Z,11.14
2023-04-12T11:47:34.678Z,11.15
2023-04-12T11:48:34.634Z,11.15
2023-04-12T11:49:34.633Z,11.15
2023-04-12T11:50:34.610Z,11.11
2023-04-12T11:51:34.621Z,11.10
2023-04-12T11:52:34.626Z,11.07
2023-04-12T11:53:34.582Z,11.02
2023-04-12T11:54:34.561Z,10.99
2023-04-12T11:55:34.577Z,10.97
2023-04-12T11:56:34.558Z,11.00
2023-04-12T11:57:34.534Z,11.04
2023-04-12T11:58:34.540Z,11.07
2023-04-12T11:59:34.496Z,11.09
2023-04-12T12:00:35.428Z,11.10
2023-04-12T12:01:34.474Z,11.15
2023-04-12T12:02:43.006Z,11.19
2023-04-12T12:03:35.633Z,11.25
2023-04-12T12:04:34.707Z,11.35
2023-04-12T12:05:34.548Z,11.43
2023-04-12T12:06:34.752Z,11.49
2023-04-12T12:07:34.864Z,11.49
2023-04-12T12:08:34.393Z,11.44
2023-04-12T12:09:34.363Z,11.49
2023-04-12T12:11:34.345Z,11.61
2023-04-12T12:12:34.348Z,11.69
2023-04-12T12:13:34.353Z,11.75
2023-04-12T12:14:34.298Z,11.76
2023-04-12T12:15:34.299Z,11.80
2023-04-12T12:16:34.372Z,11.86
2023-04-12T12:17:34.340Z,11.96
2023-04-12T12:18:34.279Z,12.01
2023-04-12T12:19:34.234Z,12.05
2023-04-12T12:20:34.234Z,12.10
2023-04-12T12:21:34.314Z,12.20
2023-04-12T12:22:34.204Z,12.31
2023-04-12T12:23:34.192Z,12.52
2023-04-12T12:24:35.418Z,12.77
2023-04-12T12:25:34.155Z,12.93
2023-04-12T12:26:34.168Z,13.01
2023-04-12T12:27:34.167Z,13.07
2023-04-12T12:28:34.150Z,13.08
2023-04-12T12:29:34.100Z,13.10
2023-04-12T12:30:34.085Z,12.96
2023-04-12T12:31:34.132Z,12.92
2023-04-12T12:32:34.123Z,12.78
2023-04-12T12:33:45.895Z,12.77
2023-04-12T12:34:35.039Z,12.77
2023-04-12T12:35:34.048Z,12.79
2023-04-12T12:36:34.106Z,12.83
2023-04-12T12:37:34.012Z,12.86
2023-04-12T12:38:34.984Z,12.89
2023-04-12T12:39:33.981Z,12.92
2023-04-12T12:40:34.004Z,13.00
2023-04-12T12:41:33.945Z,13.12
2023-04-12T12:42:33.952Z,13.26
2023-04-12T12:43:33.947Z,13.41
2023-04-12T12:44:37.078Z,13.46
2023-04-12T12:45:33.904Z,13.60
2023-04-12T12:46:44.619Z,13.75
2023-04-12T12:47:35.011Z,13.82
2023-04-12T12:48:33.903Z,13.87
2023-04-12T12:49:33.852Z,13.89
2023-04-12T12:50:33.841Z,13.92
2023-04-12T12:51:33.869Z,14.00
2023-04-12T12:52:33.840Z,14.06
2023-04-12T12:53:33.826Z,14.09
2023-04-12T12:54:41.175Z,14.10
2023-04-12T12:55:34.797Z,14.06
2023-04-12T12:56:33.772Z,13.99
2023-04-12T12:57:33.744Z,13.92
2023-04-12T12:58:33.734Z,13.89
2023-04-12T12:59:33.737Z,13.87
2023-04-12T13:00:33.725Z,13.91
2023-04-12T13:01:33.766Z,13.95
2023-04-12T13:02:34.172Z,13.96
2023-04-12T13:03:33.918Z,13.97
2023-04-12T13:04:33.779Z,14.04
2023-04-12T13:05:33.661Z,14.12
2023-04-12T13:06:33.631Z,14.15
2023-04-12T13:07:33.653Z,14.17
2023-04-12T13:08:33.614Z,14.21
2023-04-12T13:09:33.619Z,14.21
2023-04-12T13:10:33.578Z,14.21
2023-04-12T13:11:33.571Z,14.20
2023-04-12T13:12:33.567Z,14.15